Bookmark and Share
Track history (hours):
 

Taurus

Last reported at 2014-Apr-16 21:30 UTC. Time now 2014-Apr-20 13:22 UTC.
Position S 33°01' E 017°29'.

Length 292 m; draft 11.4 m.

Type: Cargo ship. MMSI: 235074621.

NotesDate/timePositionNaut miles runAvg speedWind from/ knotsBaromVisibWave heightAir tempDewpointWater temp
2014-Apr-16 21:30S 33°01' E 017°29'60 7.4
2014-Apr-16 13:22S 33°59' E 017°46'7 7.8
2014-Apr-16 12:26S 34°06' E 017°48'15 7.5
2014-Apr-16 10:30S 34°20' E 017°53'3 2.6
2014-Apr-16 09:33S 34°23' E 017°52'31 5.6
2014-Apr-16 04:07S 34°05' E 017°23'  
2014-Apr-13 20:28S 33°54' E 017°11'7 7.9
2014-Apr-13 19:31S 33°58' E 017°19'8 7.8
2014-Apr-13 18:31S 34°02' E 017°27'10 9.2
2014-Apr-13 17:27S 34°07' E 017°37'9 9.6
2014-Apr-13 16:33S 34°11' E 017°46'10 9.3
2014-Apr-13 15:31S 34°16' E 017°56'9 9.4
2014-Apr-13 14:31S 34°21' E 018°06'11 9.5
2014-Apr-13 13:20S 34°27' E 018°17'8 9.0
2014-Apr-13 12:26S 34°31' E 018°26'7 8.3
2014-Apr-13 11:33S 34°33' E 018°35'9 8.5
2014-Apr-13 10:31S 34°37' E 018°44'8 8.6
2014-Apr-13 09:33S 34°39' E 018°54'9 8.5
2014-Apr-13 08:32S 34°43' E 019°04'1713.2
2014-Apr-13 07:14S 34°49' E 019°23'1214.9
2014-Apr-13 06:25S 34°54' E 019°37'163 7.1
2014-Apr-12 07:31S 34°43' E 022°55'1515.4
2014-Apr-12 06:33S 34°41' E 023°13'52 9.7
2014-Apr-12 01:09S 34°35' E 024°17'71 9.2
2014-Apr-11 17:27S 34°27' E 025°42'10 9.3
2014-Apr-11 16:19S 34°26' E 025°54'2310.3
2014-Apr-11 14:08S 34°18' E 026°20'911.0
2014-Apr-11 13:21S 34°15' E 026°30'1312.6
2014-Apr-11 12:22S 34°10' E 026°44'3612.3
2014-Apr-11 09:29S 33°56' E 027°24'  

Dump ship's entire track history

sailing weather and tide predictions

Taurus — 2CPB4 — position and weather